createdAt,value
2023-03-07T00:00:08.385Z,99294.65
2023-03-07T00:02:56.486Z,99288.62
2023-03-07T00:05:24.710Z,99287.56
2023-03-07T00:07:52.875Z,99288.39
2023-03-07T00:10:21.052Z,99286.15
2023-03-07T00:12:49.214Z,99284.92
2023-03-07T00:15:18.011Z,99280.41
2023-03-07T00:17:46.175Z,99279.89
2023-03-07T00:20:15.476Z,99276.27
2023-03-07T00:22:44.368Z,99274.91
2023-03-07T00:25:13.488Z,99275.59
2023-03-07T00:27:41.834Z,99273.69
2023-03-07T00:30:12.606Z,99270.19
2023-03-07T00:32:40.984Z,99268.95
2023-03-07T00:35:09.219Z,99267.55
2023-03-07T00:37:37.388Z,99264.75
2023-03-07T00:40:07.604Z,99262.16
2023-03-07T00:42:35.794Z,99255.42
2023-03-07T00:45:04.261Z,99250.84
2023-03-07T00:47:32.541Z,99246.60
2023-03-07T00:50:00.811Z,99249.20
2023-03-07T00:52:28.934Z,99240.48
2023-03-07T00:54:57.363Z,99239.33
2023-03-07T00:57:25.742Z,99238.35
2023-03-07T00:59:54.115Z,99239.04
2023-03-07T01:02:22.493Z,99236.45
2023-03-07T01:04:50.768Z,99231.48
2023-03-07T01:07:18.940Z,99233.37
2023-03-07T01:09:51.512Z,99230.97
2023-03-07T01:12:19.900Z,99231.10
2023-03-07T01:14:51.218Z,99230.04
2023-03-07T01:17:19.517Z,99232.91
2023-03-07T01:19:47.993Z,99230.50
2023-03-07T01:22:16.372Z,99226.05
2023-03-07T01:24:44.577Z,99230.31
2023-03-07T01:27:12.817Z,99225.16
2023-03-07T01:29:41.195Z,99225.95
2023-03-07T01:32:09.877Z,99225.92
2023-03-07T01:34:38.564Z,99216.08
2023-03-07T01:37:06.734Z,99208.82
2023-03-07T01:39:35.218Z,99205.35
2023-03-07T01:42:09.633Z,99199.99
2023-03-07T01:45:02.902Z,99190.23
2023-03-07T01:47:43.634Z,99184.41
2023-03-07T01:50:16.541Z,99183.40
2023-03-07T01:52:52.502Z,99174.81
2023-03-07T01:55:25.212Z,99166.56
2023-03-07T01:57:57.033Z,99160.80
2023-03-07T02:00:31.250Z,99156.45
2023-03-07T02:03:39.330Z,99152.30
2023-03-07T02:06:11.420Z,99149.39
2023-03-07T02:08:40.100Z,99146.83
2023-03-07T02:11:08.787Z,99147.23
2023-03-07T02:13:36.954Z,99142.67
2023-03-07T02:16:06.682Z,99140.02
2023-03-07T02:18:39.034Z,99141.13
2023-03-07T02:21:30.348Z,99142.76
2023-03-07T02:24:16.644Z,99135.13
2023-03-07T02:26:47.173Z,99139.30
2023-03-07T02:29:16.061Z,99135.04
2023-03-07T02:31:47.409Z,99130.93
2023-03-07T02:34:27.781Z,99126.48
2023-03-07T02:37:09.079Z,99127.88
2023-03-07T02:39:39.561Z,99121.88
2023-03-07T02:42:10.532Z,99119.69
2023-03-07T02:44:47.078Z,99117.84
2023-03-07T02:47:17.001Z,99116.17
2023-03-07T02:49:45.267Z,99117.42
2023-03-07T02:52:13.644Z,99112.36
2023-03-07T02:54:41.918Z,99107.61
2023-03-07T02:57:10.911Z,99107.44
2023-03-07T02:59:39.083Z,99102.80
2023-03-07T03:02:08.077Z,99102.80
2023-03-07T03:04:36.588Z,99096.98
2023-03-07T03:07:04.933Z,99096.29
2023-03-07T03:09:33.117Z,99091.84
2023-03-07T03:12:01.284Z,99094.05
2023-03-07T03:14:30.788Z,99090.77
2023-03-07T03:16:59.058Z,99083.73
2023-03-07T03:19:29.182Z,99076.86
2023-03-07T03:21:57.867Z,99079.27
2023-03-07T03:24:26.546Z,99076.55
2023-03-07T03:26:58.312Z,99074.67
2023-03-07T03:29:27.811Z,99067.95
2023-03-07T03:31:58.848Z,99064.69
2023-03-07T03:34:27.527Z,99062.58
2023-03-07T03:36:55.806Z,99056.91
2023-03-07T03:39:24.284Z,99054.14
2023-03-07T03:41:57.272Z,99054.98
2023-03-07T03:44:25.645Z,99052.21
2023-03-07T03:46:55.942Z,99053.43
2023-03-07T03:49:24.647Z,99052.96
2023-03-07T03:51:54.261Z,99045.48
2023-03-07T03:54:22.940Z,99048.07
2023-03-07T03:56:51.226Z,99045.35
2023-03-07T03:59:19.387Z,99039.33
2023-03-07T04:01:48.042Z,99039.67
2023-03-07T04:04:16.552Z,99040.03
2023-03-07T04:06:44.929Z,99031.98
2023-03-07T04:09:13.097Z,99030.25
2023-03-07T04:11:43.623Z,99029.58
2023-03-07T04:14:12.020Z,99029.45
2023-03-07T04:16:40.582Z,99024.48
2023-03-07T04:19:12.929Z,99021.23
2023-03-07T04:21:41.331Z,99022.46
2023-03-07T04:24:10.223Z,99018.71
2023-03-07T04:26:38.320Z,99015.23
2023-03-07T04:29:06.577Z,99012.66
2023-03-07T04:31:40.079Z,99013.33
2023-03-07T04:34:08.946Z,99008.34
2023-03-07T04:36:37.230Z,99007.80
2023-03-07T04:39:05.400Z,99003.29
2023-03-07T04:41:34.292Z,98994.33
2023-03-07T04:44:06.757Z,98992.60
2023-03-07T04:46:35.038Z,98992.44
2023-03-07T04:49:03.206Z,98986.61
2023-03-07T04:51:31.482Z,98984.23
2023-03-07T04:53:59.859Z,98976.70
2023-03-07T04:56:28.029Z,98978.09
2023-03-07T04:58:56.609Z,98971.23
2023-03-07T05:01:24.820Z,98970.35
2023-03-07T05:03:53.157Z,98965.85
2023-03-07T05:06:22.070Z,98961.89
2023-03-07T05:08:52.168Z,98955.55
2023-03-07T05:11:21.159Z,98952.62
2023-03-07T05:13:50.460Z,98947.77
2023-03-07T05:16:20.880Z,98944.33
2023-03-07T05:18:49.462Z,98942.64
2023-03-07T05:21:18.262Z,98943.20
2023-03-07T05:23:46.626Z,98939.11
2023-03-07T05:26:15.312Z,98942.73
2023-03-07T05:28:43.687Z,98942.10
2023-03-07T05:31:11.890Z,98943.45
2023-03-07T05:33:42.799Z,98942.92
2023-03-07T05:36:11.788Z,98940.02
2023-03-07T05:38:40.581Z,98935.08
2023-03-07T05:41:09.375Z,98936.92
2023-03-07T05:43:37.533Z,98931.08
2023-03-07T05:46:06.133Z,98929.18
2023-03-07T05:48:34.561Z,98923.56
2023-03-07T05:51:02.865Z,98924.79
2023-03-07T05:53:31.972Z,98914.66
2023-03-07T05:56:00.550Z,98913.76
2023-03-07T05:58:29.743Z,98908.77
2023-03-07T06:00:58.016Z,98908.67
2023-03-07T06:03:26.962Z,98906.19
2023-03-07T06:05:55.181Z,98902.87
2023-03-07T06:08:23.762Z,98903.14
2023-03-07T06:10:53.674Z,98896.88
2023-03-07T06:13:24.307Z,98898.48
2023-03-07T06:15:53.743Z,98899.45
2023-03-07T06:18:23.311Z,98898.05
2023-03-07T06:21:02.027Z,98894.09
2023-03-07T06:23:33.916Z,98890.84
2023-03-07T06:26:03.783Z,98889.81
2023-03-07T06:28:32.994Z,98891.04
2023-03-07T06:31:09.202Z,98888.99
2023-03-07T06:33:37.654Z,98888.42
2023-03-07T06:36:11.855Z,98886.64
2023-03-07T06:38:41.565Z,98880.95
2023-03-07T06:41:10.346Z,98880.21
2023-03-07T06:43:39.748Z,98874.15
2023-03-07T06:46:08.812Z,98874.24
2023-03-07T06:48:40.086Z,98872.20
2023-03-07T06:51:11.228Z,98867.96
2023-03-07T06:53:41.450Z,98866.77
2023-03-07T06:56:10.138Z,98860.77
2023-03-07T06:58:39.844Z,98862.27
2023-03-07T07:01:16.029Z,98861.71
2023-03-07T07:03:44.578Z,98857.13
2023-03-07T07:06:12.761Z,98857.35
2023-03-07T07:08:42.051Z,98853.98
2023-03-07T07:11:10.742Z,98850.58
2023-03-07T07:13:39.521Z,98852.80
2023-03-07T07:16:09.053Z,98854.02
2023-03-07T07:18:38.220Z,98848.58
2023-03-07T07:21:06.906Z,98847.05
2023-03-07T07:23:35.081Z,98845.54
2023-03-07T07:26:05.198Z,98840.76
2023-03-07T07:28:34.403Z,98836.17
2023-03-07T07:31:04.324Z,98833.79
2023-03-07T07:33:33.710Z,98836.67
2023-03-07T07:36:02.115Z,98839.34
2023-03-07T07:38:30.775Z,98836.35
2023-03-07T07:40:59.457Z,98829.91
2023-03-07T07:43:27.628Z,98820.34
2023-03-07T07:46:04.938Z,98818.16
2023-03-07T07:48:33.889Z,98815.54
2023-03-07T07:51:03.106Z,98817.71
2023-03-07T07:53:32.193Z,98819.96
2023-03-07T07:56:00.956Z,98818.30
2023-03-07T07:58:29.366Z,98815.14
2023-03-07T08:00:58.354Z,98806.88
2023-03-07T08:03:27.145Z,98805.91
2023-03-07T08:05:55.619Z,98800.54
2023-03-07T08:08:23.688Z,98794.48
2023-03-07T08:10:52.686Z,98789.98
2023-03-07T08:13:21.061Z,98790.10
2023-03-07T08:15:49.269Z,98781.19
2023-03-07T08:18:17.508Z,98782.42
2023-03-07T08:20:45.677Z,98778.73
2023-03-07T08:23:13.859Z,98781.70
2023-03-07T08:25:42.025Z,98782.27
2023-03-07T08:28:10.196Z,98783.83
2023-03-07T08:30:38.581Z,98783.98
2023-03-07T08:33:07.575Z,98784.99
2023-03-07T08:35:35.785Z,98778.66
2023-03-07T08:38:04.130Z,98773.17
2023-03-07T08:40:32.389Z,98773.55
2023-03-07T08:43:01.183Z,98771.50
2023-03-07T08:45:29.454Z,98768.88
2023-03-07T08:47:58.027Z,98770.91
2023-03-07T08:50:28.664Z,98767.55
2023-03-07T08:52:57.967Z,98770.11
2023-03-07T08:55:26.336Z,98768.58
2023-03-07T08:57:54.500Z,98768.00
2023-03-07T09:00:22.994Z,98765.95
2023-03-07T09:02:51.172Z,98766.40
2023-03-07T09:05:19.549Z,98766.30
2023-03-07T09:07:47.700Z,98774.08
2023-03-07T09:10:17.380Z,98767.35
2023-03-07T09:12:45.432Z,98769.73
2023-03-07T09:15:13.678Z,98765.94
2023-03-07T09:17:41.840Z,98771.80
2023-03-07T09:20:12.016Z,98770.98
2023-03-07T09:22:40.219Z,98766.89
2023-03-07T09:25:09.619Z,98762.73
2023-03-07T09:27:37.904Z,98761.34
2023-03-07T09:30:06.882Z,98759.61
2023-03-07T09:32:35.125Z,98766.08
2023-03-07T09:35:04.053Z,98756.05
2023-03-07T09:37:32.221Z,98755.38
2023-03-07T09:40:00.444Z,98748.85
2023-03-07T09:42:40.359Z,98747.75
2023-03-07T09:45:11.796Z,98743.03
2023-03-07T09:48:25.640Z,98742.94
2023-03-07T09:50:58.419Z,98747.27
2023-03-07T09:53:48.256Z,98747.01
2023-03-07T09:56:22.204Z,98741.80
2023-03-07T09:59:22.629Z,98739.07
2023-03-07T10:02:17.737Z,98744.92
2023-03-07T10:04:52.562Z,98740.13
2023-03-07T10:07:24.114Z,98742.13
2023-03-07T10:09:57.207Z,98739.72
2023-03-07T10:12:25.374Z,98731.03
2023-03-07T10:15:03.896Z,98733.27
2023-03-07T10:17:47.241Z,98729.36
2023-03-07T10:20:45.291Z,98728.37
2023-03-07T10:23:41.798Z,98726.77
2023-03-07T10:26:12.379Z,98727.70
2023-03-07T10:28:42.688Z,98722.47
2023-03-07T10:31:11.050Z,98717.77
2023-03-07T10:33:40.862Z,98720.90
2023-03-07T10:36:35.173Z,98717.70
2023-03-07T10:39:34.956Z,98719.13
2023-03-07T10:42:03.131Z,98724.33
2023-03-07T10:44:34.577Z,98718.34
2023-03-07T10:47:03.002Z,98718.52
2023-03-07T10:49:33.585Z,98718.23
2023-03-07T10:52:13.230Z,98711.73
2023-03-07T10:54:41.398Z,98709.06
2023-03-07T10:57:14.967Z,98704.17
2023-03-07T10:59:45.421Z,98699.55
2023-03-07T11:02:25.982Z,98699.77
2023-03-07T11:04:54.616Z,98692.86
2023-03-07T11:07:29.827Z,98685.75
2023-03-07T11:09:59.311Z,98685.64
2023-03-07T11:12:29.527Z,98679.61
2023-03-07T11:15:09.165Z,98679.11
2023-03-07T11:17:45.126Z,98678.06
2023-03-07T11:20:49.544Z,98672.48
2023-03-07T11:23:24.583Z,98668.67
2023-03-07T11:25:55.088Z,98664.20
2023-03-07T11:28:27.475Z,98663.02
2023-03-07T11:31:04.882Z,98657.13
2023-03-07T11:33:58.534Z,98658.81
2023-03-07T11:36:28.135Z,98657.84
2023-03-07T11:39:15.263Z,98658.59
2023-03-07T11:41:47.828Z,98654.52
2023-03-07T11:44:29.106Z,98656.21
2023-03-07T11:47:13.367Z,98653.80
2023-03-07T11:49:57.710Z,98651.70
2023-03-07T11:53:12.268Z,98646.16
2023-03-07T11:56:13.208Z,98639.59
2023-03-07T11:59:24.591Z,98631.75
2023-03-07T12:01:56.760Z,98628.77
2023-03-07T12:04:43.581Z,98628.71
2023-03-07T12:07:17.992Z,98626.19
2023-03-07T12:10:23.640Z,98625.27
2023-03-07T12:13:10.976Z,98615.66
2023-03-07T12:15:51.588Z,98613.44
2023-03-07T12:18:44.081Z,98607.08
2023-03-07T12:21:43.270Z,98607.96
2023-03-07T12:24:23.524Z,98606.83
2023-03-07T12:27:03.938Z,98602.71
2023-03-07T12:30:04.411Z,98592.56
2023-03-07T12:32:34.122Z,98592.18
2023-03-07T12:35:21.425Z,98587.56
2023-03-07T12:38:14.290Z,98592.59
2023-03-07T12:40:46.667Z,98582.73
2023-03-07T12:43:48.118Z,98576.52
2023-03-07T12:46:34.798Z,98573.49
2023-03-07T12:49:49.917Z,98572.77
2023-03-07T12:52:29.550Z,98571.48
2023-03-07T12:55:19.415Z,98575.01
2023-03-07T12:58:07.354Z,98573.77
2023-03-07T13:00:43.682Z,98563.04
2023-03-07T13:03:17.211Z,98560.86
2023-03-07T13:05:45.690Z,98567.64
2023-03-07T13:08:20.725Z,98564.67
2023-03-07T13:10:48.893Z,98565.11
2023-03-07T13:13:45.326Z,98563.21
2023-03-07T13:16:32.580Z,98561.15
2023-03-07T13:19:35.431Z,98561.99
2023-03-07T13:22:16.695Z,98556.36
2023-03-07T13:24:46.109Z,98554.70
2023-03-07T13:27:31.388Z,98552.23
2023-03-07T13:30:08.564Z,98545.65
2023-03-07T13:32:52.437Z,98555.50
2023-03-07T13:35:33.673Z,98549.95
2023-03-07T13:38:07.810Z,98547.83
2023-03-07T13:40:38.048Z,98542.46
2023-03-07T13:43:28.152Z,98539.73
2023-03-07T13:46:05.215Z,98534.27
2023-03-07T13:48:33.353Z,98532.05
2023-03-07T13:51:01.526Z,98525.23
2023-03-07T13:53:44.340Z,98522.98
2023-03-07T13:56:15.486Z,98523.73
2023-03-07T13:59:09.987Z,98519.37
2023-03-07T14:01:53.298Z,98518.32
2023-03-07T14:04:51.891Z,98513.26
2023-03-07T14:07:34.290Z,98512.92
2023-03-07T14:10:21.481Z,98516.21
2023-03-07T14:12:52.246Z,98513.76
2023-03-07T14:15:29.104Z,98507.59
2023-03-07T14:18:27.810Z,98506.13
2023-03-07T14:21:03.559Z,98496.11
2023-03-07T14:23:59.995Z,98495.06
2023-03-07T14:26:58.580Z,98489.45
2023-03-07T14:29:28.098Z,98485.52
2023-03-07T14:31:58.453Z,98483.66
2023-03-07T14:34:35.086Z,98476.52
2023-03-07T14:37:07.175Z,98475.85
2023-03-07T14:39:44.940Z,98469.84
2023-03-07T14:42:42.603Z,98465.45
2023-03-07T14:45:13.753Z,98465.80
2023-03-07T14:47:51.845Z,98468.13
2023-03-07T14:50:22.375Z,98470.82
2023-03-07T14:52:58.228Z,98469.12
2023-03-07T14:55:28.648Z,98467.60
2023-03-07T14:57:56.921Z,98467.23
2023-03-07T15:00:28.901Z,98463.13
2023-03-07T15:03:07.690Z,98466.98
2023-03-07T15:05:38.261Z,98467.56
2023-03-07T15:08:17.051Z,98469.52
2023-03-07T15:10:46.455Z,98470.12
2023-03-07T15:13:23.858Z,98458.28
2023-03-07T15:16:21.066Z,98460.80
2023-03-07T15:18:55.413Z,98456.71
2023-03-07T15:21:24.922Z,98452.52
2023-03-07T15:23:55.548Z,98446.06
2023-03-07T15:26:25.158Z,98446.63
2023-03-07T15:29:08.674Z,98448.77
2023-03-07T15:31:58.641Z,98451.64
2023-03-07T15:34:30.725Z,98448.71
2023-03-07T15:37:22.498Z,98447.95
2023-03-07T15:40:08.149Z,98442.94
2023-03-07T15:42:49.834Z,98439.81
2023-03-07T15:46:01.918Z,98435.44
2023-03-07T15:48:38.111Z,98439.67
2023-03-07T15:51:12.085Z,98437.14
2023-03-07T15:53:41.917Z,98435.02
2023-03-07T15:56:27.307Z,98429.20
2023-03-07T15:59:00.264Z,98425.27
2023-03-07T16:01:28.470Z,98418.86
2023-03-07T16:04:03.265Z,98417.30
2023-03-07T16:06:45.798Z,98417.77
2023-03-07T16:09:16.418Z,98408.77
2023-03-07T16:11:46.127Z,98409.40
2023-03-07T16:14:26.604Z,98408.28
2023-03-07T16:17:04.175Z,98409.40
2023-03-07T16:19:32.349Z,98410.25
2023-03-07T16:22:00.627Z,98411.02
2023-03-07T16:24:28.798Z,98411.38
2023-03-07T16:26:58.091Z,98416.79
2023-03-07T16:29:26.263Z,98419.77
2023-03-07T16:31:54.505Z,98416.66
2023-03-07T16:34:23.428Z,98420.53
2023-03-07T16:36:51.596Z,98417.55
2023-03-07T16:39:19.870Z,98421.48
2023-03-07T16:41:49.593Z,98422.85
2023-03-07T16:44:20.006Z,98426.58
2023-03-07T16:47:11.726Z,98428.92
2023-03-07T16:49:40.024Z,98425.59
2023-03-07T16:52:12.371Z,98435.25
2023-03-07T16:54:40.955Z,98435.84
2023-03-07T16:57:14.567Z,98443.88
2023-03-07T16:59:46.181Z,98453.42
2023-03-07T17:02:19.764Z,98443.27
2023-03-07T17:04:48.081Z,98444.91
2023-03-07T17:07:18.714Z,98459.49
2023-03-07T17:09:46.883Z,98455.52
2023-03-07T17:12:15.984Z,98453.85
2023-03-07T17:14:44.925Z,98457.75
2023-03-07T17:17:29.269Z,98458.70
2023-03-07T17:19:57.500Z,98461.49
2023-03-07T17:22:25.665Z,98464.54
2023-03-07T17:24:53.742Z,98467.14
2023-03-07T17:27:22.091Z,98462.64
2023-03-07T17:29:54.608Z,98466.58
2023-03-07T17:32:22.997Z,98470.66
2023-03-07T17:34:51.256Z,98466.95
2023-03-07T17:37:19.409Z,98473.66
2023-03-07T17:39:48.634Z,98476.23
2023-03-07T17:42:16.786Z,98478.78
2023-03-07T17:44:44.954Z,98483.96
2023-03-07T17:47:13.125Z,98480.35
2023-03-07T17:49:41.397Z,98486.08
2023-03-07T17:52:09.892Z,98483.04
2023-03-07T17:54:38.561Z,98487.35
2023-03-07T17:57:08.168Z,98481.91
2023-03-07T17:59:36.442Z,98484.61
2023-03-07T18:02:05.821Z,98488.80
2023-03-07T18:04:34.017Z,98494.70
2023-03-07T18:07:02.201Z,98500.14
2023-03-07T18:09:31.181Z,98497.44
2023-03-07T18:11:59.975Z,98500.21
2023-03-07T18:14:28.549Z,98495.92
2023-03-07T18:16:56.928Z,98502.73
2023-03-07T18:19:26.949Z,98507.80
2023-03-07T18:21:55.668Z,98516.50
2023-03-07T18:24:26.623Z,98518.45
2023-03-07T18:26:55.789Z,98521.75
2023-03-07T18:29:24.544Z,98523.09
2023-03-07T18:31:52.933Z,98535.64
2023-03-07T18:34:21.604Z,98547.56
2023-03-07T18:36:51.835Z,98561.73
2023-03-07T18:39:21.631Z,98575.17
2023-03-07T18:41:50.033Z,98584.14
2023-03-07T18:44:18.896Z,98592.20
2023-03-07T18:46:47.211Z,98592.46
2023-03-07T18:49:16.267Z,98594.70
2023-03-07T18:51:46.215Z,98595.52
2023-03-07T18:54:14.461Z,98595.22
2023-03-07T18:56:46.494Z,98601.01
2023-03-07T18:59:15.320Z,98597.92
2023-03-07T19:01:44.255Z,98593.87
2023-03-07T19:04:12.466Z,98596.81
2023-03-07T19:06:44.817Z,98603.93
2023-03-07T19:09:18.645Z,98600.06
2023-03-07T19:11:47.652Z,98599.77
2023-03-07T19:14:15.910Z,98603.80
2023-03-07T19:16:44.130Z,98608.19
2023-03-07T19:19:12.358Z,98610.03
2023-03-07T19:21:40.532Z,98608.98
2023-03-07T19:24:11.586Z,98612.53
2023-03-07T19:26:41.084Z,98611.85
2023-03-07T19:29:11.314Z,98613.29
2023-03-07T19:31:41.064Z,98614.19
2023-03-07T19:34:09.788Z,98618.99
2023-03-07T19:36:39.401Z,98627.80
2023-03-07T19:39:15.321Z,98626.86
2023-03-07T19:41:45.672Z,98622.52
2023-03-07T19:44:14.791Z,98621.61
2023-03-07T19:46:46.558Z,98618.05
2023-03-07T19:49:18.181Z,98617.20
2023-03-07T19:51:46.459Z,98618.76
2023-03-07T19:54:15.352Z,98621.70
2023-03-07T19:56:45.767Z,98627.66
2023-03-07T19:59:14.044Z,98626.59
2023-03-07T20:01:42.588Z,98632.91
2023-03-07T20:04:16.218Z,98639.70
2023-03-07T20:06:44.974Z,98640.50
2023-03-07T20:09:13.587Z,98636.05
2023-03-07T20:11:45.452Z,98638.34
2023-03-07T20:14:13.738Z,98636.64
2023-03-07T20:16:42.001Z,98642.05
2023-03-07T20:19:10.886Z,98644.55
2023-03-07T20:21:40.397Z,98646.36
2023-03-07T20:24:09.400Z,98645.38
2023-03-07T20:26:39.290Z,98648.13
2023-03-07T20:29:09.646Z,98651.27
2023-03-07T20:31:39.578Z,98652.00
2023-03-07T20:34:08.448Z,98644.27
2023-03-07T20:36:37.775Z,98634.98
2023-03-07T20:39:08.364Z,98644.80
2023-03-07T20:41:36.523Z,98654.14
2023-03-07T20:44:08.008Z,98654.71
2023-03-07T20:46:37.827Z,98655.98
2023-03-07T20:49:06.357Z,98655.40
2023-03-07T20:51:36.278Z,98656.27
2023-03-07T20:54:07.285Z,98658.48
2023-03-07T20:56:37.000Z,98662.62
2023-03-07T20:59:06.424Z,98670.16
2023-03-07T21:01:35.680Z,98673.09
2023-03-07T21:04:06.417Z,98675.34
2023-03-07T21:06:35.656Z,98679.86
2023-03-07T21:09:08.124Z,98685.42
2023-03-07T21:11:38.146Z,98685.33
2023-03-07T21:14:06.727Z,98687.52
2023-03-07T21:16:35.046Z,98687.86
2023-03-07T21:19:05.223Z,98694.90
2023-03-07T21:21:35.009Z,98695.41
2023-03-07T21:24:04.017Z,98695.45
2023-03-07T21:26:34.345Z,98698.21
2023-03-07T21:29:05.998Z,98707.73
2023-03-07T21:31:35.511Z,98707.80
2023-03-07T21:34:06.742Z,98707.35
2023-03-07T21:36:35.017Z,98708.54
2023-03-07T21:39:10.358Z,98708.14
2023-03-07T21:41:38.833Z,98710.50
2023-03-07T21:44:07.531Z,98716.13
2023-03-07T21:46:35.895Z,98714.79
2023-03-07T21:49:04.174Z,98717.92
2023-03-07T21:51:32.342Z,98716.72
2023-03-07T21:54:01.025Z,98715.41
2023-03-07T21:56:29.197Z,98721.65
2023-03-07T21:58:57.676Z,98720.88
2023-03-07T22:01:28.944Z,98717.21
2023-03-07T22:03:59.483Z,98720.93
2023-03-07T22:06:28.677Z,98725.52
2023-03-07T22:08:59.389Z,98726.85
2023-03-07T22:11:27.549Z,98724.73
2023-03-07T22:13:55.941Z,98726.88
2023-03-07T22:16:24.277Z,98729.39
2023-03-07T22:18:56.807Z,98733.71
2023-03-07T22:21:26.471Z,98733.98
2023-03-07T22:23:58.342Z,98733.58
2023-03-07T22:26:28.663Z,98734.70
2023-03-07T22:28:56.939Z,98738.23
2023-03-07T22:31:25.752Z,98735.35
2023-03-07T22:33:54.101Z,98732.66
2023-03-07T22:36:22.270Z,98729.58
2023-03-07T22:38:55.340Z,98730.91
2023-03-07T22:41:24.572Z,98735.21
2023-03-07T22:43:52.835Z,98736.71
2023-03-07T22:46:22.003Z,98735.23
2023-03-07T22:48:55.010Z,98740.33
2023-03-07T22:51:24.528Z,98742.05
2023-03-07T22:53:53.099Z,98749.26
2023-03-07T22:56:24.243Z,98749.09
2023-03-07T22:58:52.719Z,98745.73
2023-03-07T23:01:25.910Z,98744.06
2023-03-07T23:03:55.316Z,98741.55
2023-03-07T23:06:25.941Z,98739.84
2023-03-07T23:08:54.116Z,98744.66
2023-03-07T23:11:24.127Z,98755.85
2023-03-07T23:13:53.116Z,98752.98
2023-03-07T23:16:24.058Z,98757.65
2023-03-07T23:18:55.028Z,98761.05
2023-03-07T23:21:27.056Z,98763.98
2023-03-07T23:23:56.048Z,98761.96
2023-03-07T23:26:26.591Z,98773.00
2023-03-07T23:28:55.360Z,98774.44
2023-03-07T23:31:32.509Z,98779.30
2023-03-07T23:34:02.455Z,98779.34
2023-03-07T23:36:32.066Z,98785.88
2023-03-07T23:39:00.859Z,98788.48
2023-03-07T23:41:29.035Z,98789.34
2023-03-07T23:43:59.653Z,98782.46
2023-03-07T23:46:28.775Z,98784.02
2023-03-07T23:48:57.443Z,98784.78
2023-03-07T23:51:25.920Z,98786.09
2023-03-07T23:53:53.988Z,98781.16
2023-03-07T23:56:22.250Z,98780.16
2023-03-07T23:58:51.653Z,98783.46
